Meursault — SC5587 — position and weather

sailwx.info

Track history (hours):
 
Tides and Currents Weather Stations Pressure Air Temp Water Temp Dewpoint Dewpoint Depression Visibility Wind Speed Wind Dir Waves Ship Positions

Meursault

Last reported at 2018-Jun-12 10:25 UTC. Time now 2018-Jun-19 02:42 UTC.
Position N 59°41' E 018°46'.

Length 14 m.

Type: Sailing vessel. MMSI: 265553570.

Date/timePositionNaut miles runAvg speedWind from/ knotsBaromVisibWave heightAir tempDewpointWater temp
2018-Jun-12 10:25N 59°41' E 018°46'3 6.6
2018-Jun-12 09:56N 59°39' E 018°51'3 6.4
2018-Jun-12 09:24N 59°40' E 018°58'3 7.2
2018-Jun-12 08:59N 59°42' E 019°03'3 6.4
2018-Jun-12 08:27N 59°45' E 019°05'3 7.4
2018-Jun-12 08:00N 59°48' E 019°02'4 7.4
2018-Jun-12 07:31N 59°51' E 018°58'  
2018-Jun-05 09:39N 59°50' E 018°56'0 0.0
2018-Jun-05 09:30N 59°50' E 018°56'0 0.0
2018-Jun-05 09:00N 59°50' E 018°56'0 0.0
2018-Jun-05 08:27N 59°50' E 018°56'0 0.0
2018-Jun-05 07:57N 59°50' E 018°56'0 0.0
2018-Jun-05 07:30N 59°50' E 018°56'  
Track history (hours):
 
Tides and Currents Weather Stations Pressure Air Temp Water Temp Dewpoint Dewpoint Depression Visibility Wind Speed Wind Dir Waves Ship Positions

Meursault

Last reported at 2018-Jun-12 10:25 UTC. Time now 2018-Jun-19 02:42 UTC.
Position N 59°41' E 018°46'.

Length 14 m.

Type: Sailing vessel. MMSI: 265553570.

Date/timePositionNaut miles runAvg speedWind from/ knotsBaromVisibWave heightAir tempDewpointWater temp
2018-Jun-12 10:25N 59°41' E 018°46'3 6.6
2018-Jun-12 09:56N 59°39' E 018°51'3 6.4
2018-Jun-12 09:24N 59°40' E 018°58'3 7.2
2018-Jun-12 08:59N 59°42' E 019°03'3 6.4
2018-Jun-12 08:27N 59°45' E 019°05'3 7.4
2018-Jun-12 08:00N 59°48' E 019°02'4 7.4
2018-Jun-12 07:31N 59°51' E 018°58'  
2018-Jun-05 09:39N 59°50' E 018°56'0 0.0
2018-Jun-05 09:30N 59°50' E 018°56'0 0.0
2018-Jun-05 09:00N 59°50' E 018°56'0 0.0
2018-Jun-05 08:27N 59°50' E 018°56'0 0.0
2018-Jun-05 07:57N 59°50' E 018°56'0 0.0
2018-Jun-05 07:30N 59°50' E 018°56'  

Dump ship's entire track history